Metar z połowy godziny Komunikat METAR ze strony awiacja.imgw.pl Metar Mil EPPW METAR EPPW 230700Z 28012KT 9999 SCT012 06/05 Q1020 RMK 064 089 3/3=